createdAt,value
2022-08-09T00:00:11.963Z,53.50
2022-08-09T00:02:49.150Z,53.40
2022-08-09T00:06:16.348Z,53.40
2022-08-09T00:08:10.135Z,53.20
2022-08-09T00:10:38.760Z,53.20
2022-08-09T00:13:16.687Z,53.20
2022-08-09T00:15:58.153Z,53.20
2022-08-09T00:18:39.049Z,53.30
2022-08-09T00:21:08.440Z,53.20
2022-08-09T00:23:55.082Z,53.30
2022-08-09T00:26:29.809Z,53.20
2022-08-09T00:29:01.132Z,53.40
2022-08-09T00:31:57.328Z,53.30
2022-08-09T00:34:15.101Z,53.40
2022-08-09T00:36:47.171Z,53.40
2022-08-09T00:40:08.852Z,53.70
2022-08-09T00:44:13.797Z,53.60
2022-08-09T00:44:48.237Z,53.40
2022-08-09T00:47:15.873Z,53.60
2022-08-09T00:49:52.522Z,53.70
2022-08-09T00:52:30.034Z,53.70
2022-08-09T00:55:01.994Z,53.70
2022-08-09T00:57:34.800Z,53.90
2022-08-09T01:00:21.859Z,54.00
2022-08-09T01:03:14.921Z,53.80
2022-08-09T01:05:56.865Z,54.10
2022-08-09T01:09:06.123Z,54.00
2022-08-09T01:11:56.182Z,54.10
2022-08-09T01:14:30.452Z,54.10
2022-08-09T01:17:04.451Z,53.70
2022-08-09T01:19:57.095Z,53.80
2022-08-09T01:22:52.138Z,53.80
2022-08-09T01:25:48.910Z,53.90
2022-08-09T01:28:19.076Z,53.80
2022-08-09T01:30:51.876Z,54.10
2022-08-09T01:33:24.008Z,54.40
2022-08-09T01:36:02.207Z,54.80
2022-08-09T01:38:34.820Z,55.10
2022-08-09T01:41:12.026Z,55.50
2022-08-09T01:43:51.535Z,56.10
2022-08-09T01:46:49.985Z,56.30
2022-08-09T01:49:24.109Z,56.60
2022-08-09T01:51:57.010Z,56.80
2022-08-09T01:54:32.824Z,56.70
2022-08-09T01:57:08.163Z,56.80
2022-08-09T01:59:41.071Z,57.00
2022-08-09T02:02:22.364Z,56.90
2022-08-09T02:04:50.713Z,56.90
2022-08-09T02:08:39.588Z,57.10
2022-08-09T02:10:15.661Z,57.40
2022-08-09T02:12:45.840Z,57.80
2022-08-09T02:15:17.082Z,57.90
2022-08-09T02:18:00.684Z,57.90
2022-08-09T02:20:37.784Z,58.20
2022-08-09T02:23:07.999Z,58.10
2022-08-09T02:25:41.999Z,58.40
2022-08-09T02:28:24.042Z,58.50
2022-08-09T02:31:00.275Z,58.30
2022-08-09T02:33:58.117Z,58.60
2022-08-09T02:36:46.780Z,58.90
2022-08-09T02:39:34.004Z,59.00
2022-08-09T02:42:13.360Z,59.10
2022-08-09T02:44:55.408Z,59.20
2022-08-09T02:47:24.375Z,59.20
2022-08-09T02:50:02.477Z,59.20
2022-08-09T02:52:57.813Z,59.60
2022-08-09T02:55:46.078Z,59.80
2022-08-09T02:58:32.958Z,59.70
2022-08-09T03:01:04.662Z,59.80
2022-08-09T03:04:12.215Z,59.80
2022-08-09T03:06:25.194Z,59.80
2022-08-09T03:08:55.737Z,60.30
2022-08-09T03:11:29.734Z,60.10
2022-08-09T03:14:12.445Z,61.00
2022-08-09T03:16:45.157Z,61.40
2022-08-09T03:19:52.065Z,61.80
2022-08-09T03:22:12.040Z,61.90
2022-08-09T03:25:05.879Z,62.00
2022-08-09T03:27:45.545Z,62.20
2022-08-09T03:30:14.320Z,62.40
2022-08-09T03:32:58.761Z,62.90
2022-08-09T03:35:44.475Z,63.30
2022-08-09T03:38:28.555Z,63.60
2022-08-09T03:40:56.547Z,64.20
2022-08-09T03:43:23.355Z,64.20
2022-08-09T03:46:04.728Z,64.70
2022-08-09T03:48:42.895Z,65.00
2022-08-09T03:51:54.234Z,65.20
2022-08-09T03:54:10.949Z,66.20
2022-08-09T03:56:41.400Z,66.50
2022-08-09T03:59:16.990Z,67.10
2022-08-09T04:01:49.175Z,67.70
2022-08-09T04:04:17.347Z,68.10
2022-08-09T04:06:49.319Z,68.20
2022-08-09T04:09:44.374Z,68.90
2022-08-09T04:12:32.790Z,68.30
2022-08-09T04:15:01.977Z,68.80
2022-08-09T04:17:39.422Z,69.20
2022-08-09T04:20:15.441Z,69.10
2022-08-09T04:22:44.302Z,69.50
2022-08-09T04:25:13.039Z,69.50
2022-08-09T04:27:46.667Z,69.20
2022-08-09T04:30:20.825Z,69.20
2022-08-09T04:32:50.411Z,70.00
2022-08-09T04:35:17.552Z,70.50
2022-08-09T04:37:50.013Z,70.30
2022-08-09T04:40:36.035Z,70.60
2022-08-09T04:43:04.058Z,70.90
2022-08-09T04:45:35.951Z,70.80
2022-08-09T04:48:19.312Z,71.10
2022-08-09T04:50:49.884Z,71.10
2022-08-09T04:53:17.053Z,71.20
2022-08-09T04:55:58.452Z,70.60
2022-08-09T04:58:27.465Z,71.00
2022-08-09T05:00:55.375Z,70.30
2022-08-09T05:03:40.896Z,70.20
2022-08-09T05:06:11.772Z,71.20
2022-08-09T05:08:48.933Z,70.40
2022-08-09T05:11:15.966Z,69.90
2022-08-09T05:13:43.717Z,70.00
2022-08-09T05:16:11.215Z,70.20
2022-08-09T05:18:57.559Z,70.50
2022-08-09T05:21:30.532Z,70.80
2022-08-09T05:24:13.181Z,70.40
2022-08-09T05:26:45.947Z,70.50
2022-08-09T05:29:24.155Z,70.80
2022-08-09T05:32:00.421Z,71.50
2022-08-09T05:34:31.456Z,71.20
2022-08-09T05:37:06.059Z,71.70
2022-08-09T05:39:36.026Z,71.70
2022-08-09T05:42:10.302Z,72.30
2022-08-09T05:44:50.821Z,72.00
2022-08-09T05:47:22.697Z,71.70
2022-08-09T05:50:24.461Z,71.80
2022-08-09T05:52:41.904Z,71.60
2022-08-09T05:55:18.046Z,71.60
2022-08-09T05:57:56.081Z,71.50
2022-08-09T06:00:30.384Z,72.00
2022-08-09T06:03:02.299Z,72.70
2022-08-09T06:05:49.925Z,72.90
2022-08-09T06:08:19.780Z,73.80
2022-08-09T06:10:56.170Z,72.30
2022-08-09T06:13:25.038Z,71.40
2022-08-09T06:15:52.813Z,71.00
2022-08-09T06:18:24.046Z,71.00
2022-08-09T06:20:57.956Z,70.50
2022-08-09T06:23:58.633Z,70.30
2022-08-09T06:26:21.053Z,70.00
2022-08-09T06:29:00.004Z,69.20
2022-08-09T06:31:39.382Z,68.70
2022-08-09T06:34:20.062Z,68.50
2022-08-09T06:36:59.085Z,68.50
2022-08-09T06:39:48.422Z,67.80
2022-08-09T06:42:24.500Z,67.70
2022-08-09T06:44:54.247Z,67.60
2022-08-09T06:47:22.178Z,67.60
2022-08-09T06:50:13.720Z,67.30
2022-08-09T06:52:48.861Z,67.20
2022-08-09T06:55:18.565Z,66.50
2022-08-09T06:58:02.447Z,66.90
2022-08-09T07:00:54.636Z,67.10
2022-08-09T07:03:27.969Z,66.90
2022-08-09T07:06:02.887Z,66.60
2022-08-09T07:08:33.149Z,66.50
2022-08-09T07:11:03.520Z,66.00
2022-08-09T07:13:31.223Z,65.20
2022-08-09T07:16:41.233Z,63.80
2022-08-09T07:18:59.236Z,63.90
2022-08-09T07:21:26.014Z,63.30
2022-08-09T07:23:58.513Z,62.80
2022-08-09T07:26:26.003Z,62.70
2022-08-09T07:29:08.879Z,62.20
2022-08-09T07:31:44.938Z,62.20
2022-08-09T07:34:19.370Z,61.90
2022-08-09T07:36:48.727Z,61.80
2022-08-09T07:39:19.754Z,62.20
2022-08-09T07:41:53.835Z,61.80
2022-08-09T07:44:23.997Z,62.40
2022-08-09T07:46:59.649Z,62.70
2022-08-09T07:49:28.911Z,62.90
2022-08-09T07:52:04.947Z,62.80
2022-08-09T07:54:38.260Z,62.90
2022-08-09T07:57:11.725Z,63.40
2022-08-09T07:59:52.255Z,64.10
2022-08-09T08:02:27.268Z,63.80
2022-08-09T08:04:54.704Z,63.60
2022-08-09T08:08:43.361Z,63.60
2022-08-09T08:10:10.799Z,62.90
2022-08-09T08:12:43.456Z,62.50
2022-08-09T08:15:16.807Z,61.30
2022-08-09T08:17:53.540Z,60.30
2022-08-09T08:20:29.017Z,59.60
2022-08-09T08:23:01.748Z,57.40
2022-08-09T08:25:44.763Z,54.60
2022-08-09T08:28:14.971Z,55.40
2022-08-09T08:30:43.848Z,54.50
2022-08-09T08:33:12.148Z,54.40
2022-08-09T08:35:59.897Z,53.50
2022-08-09T08:38:28.880Z,52.50
2022-08-09T08:40:57.176Z,53.00
2022-08-09T08:43:26.452Z,52.30
2022-08-09T08:46:31.793Z,51.60
2022-08-09T08:48:52.018Z,51.30
2022-08-09T08:51:23.912Z,51.90
2022-08-09T08:54:03.717Z,51.10
2022-08-09T08:56:37.941Z,51.40
2022-08-09T08:59:19.392Z,50.70
2022-08-09T09:01:53.172Z,50.00
2022-08-09T09:04:27.671Z,49.80
2022-08-09T09:06:58.214Z,50.00
2022-08-09T09:09:58.190Z,50.20
2022-08-09T09:12:19.727Z,49.80
2022-08-09T09:14:51.935Z,50.00
2022-08-09T09:17:20.985Z,49.90
2022-08-09T09:19:47.880Z,49.60
2022-08-09T09:22:17.060Z,49.70
2022-08-09T09:26:00.362Z,49.60
2022-08-09T09:28:05.507Z,49.10
2022-08-09T09:30:47.441Z,49.00
2022-08-09T09:33:17.756Z,49.30
2022-08-09T09:36:02.772Z,49.50
2022-08-09T09:38:51.065Z,49.30
2022-08-09T09:41:24.128Z,48.80
2022-08-09T09:44:12.543Z,48.80
2022-08-09T09:46:46.131Z,48.70
2022-08-09T09:49:49.901Z,48.70
2022-08-09T09:52:16.298Z,49.30
2022-08-09T09:55:24.004Z,48.60
2022-08-09T09:58:15.619Z,48.30
2022-08-09T10:00:58.701Z,47.20
2022-08-09T10:04:01.473Z,47.60
2022-08-09T10:06:43.425Z,47.40
2022-08-09T10:09:23.242Z,47.50
2022-08-09T10:12:14.335Z,47.30
2022-08-09T10:14:51.635Z,46.70
2022-08-09T10:17:55.065Z,46.80
2022-08-09T10:20:27.287Z,46.90
2022-08-09T10:23:13.521Z,47.20
2022-08-09T10:26:06.008Z,47.80
2022-08-09T10:28:30.853Z,48.10
2022-08-09T10:34:10.473Z,47.70
2022-08-09T10:36:33.341Z,46.60
2022-08-09T10:39:02.848Z,46.70
2022-08-09T10:41:32.998Z,47.10
2022-08-09T10:44:04.019Z,47.00
2022-08-09T10:47:00.912Z,47.20
2022-08-09T10:49:51.720Z,47.00
2022-08-09T10:52:35.084Z,46.60
2022-08-09T10:55:28.086Z,47.10
2022-08-09T10:57:58.654Z,47.00
2022-08-09T11:00:35.979Z,46.60
2022-08-09T11:03:50.684Z,46.40
2022-08-09T11:06:24.147Z,47.30
2022-08-09T11:08:54.013Z,46.70
2022-08-09T11:11:23.229Z,46.70
2022-08-09T11:14:28.941Z,46.50
2022-08-09T11:16:58.766Z,46.80
2022-08-09T11:20:11.866Z,47.30
2022-08-09T11:22:45.067Z,47.10
2022-08-09T11:25:17.668Z,46.80
2022-08-09T11:28:02.469Z,46.90
2022-08-09T11:30:36.374Z,45.90
2022-08-09T11:33:25.294Z,46.80
2022-08-09T11:35:57.431Z,47.30
2022-08-09T11:38:33.136Z,47.60
2022-08-09T11:41:28.289Z,48.20
2022-08-09T11:44:05.978Z,48.50
2022-08-09T11:47:01.013Z,49.00
2022-08-09T11:50:53.704Z,48.80
2022-08-09T11:53:55.098Z,48.70
2022-08-09T11:55:53.295Z,48.80
2022-08-09T11:58:33.589Z,48.40
2022-08-09T12:01:15.422Z,48.70
2022-08-09T12:04:04.391Z,48.90
2022-08-09T12:06:35.290Z,49.20
2022-08-09T12:09:17.541Z,48.90
2022-08-09T12:12:03.369Z,48.70
2022-08-09T12:14:40.666Z,48.80
2022-08-09T12:17:27.614Z,49.10
2022-08-09T12:20:16.586Z,49.30
2022-08-09T12:22:56.038Z,49.00
2022-08-09T12:25:36.525Z,48.90
2022-08-09T12:29:12.310Z,49.30
2022-08-09T12:31:11.204Z,48.70
2022-08-09T12:33:58.815Z,48.00
2022-08-09T12:36:31.647Z,48.70
2022-08-09T12:39:00.515Z,48.50
2022-08-09T12:41:39.185Z,47.90
2022-08-09T12:44:10.189Z,48.20
2022-08-09T12:46:49.056Z,50.30
2022-08-09T12:49:17.346Z,50.20
2022-08-09T12:52:02.591Z,49.90
2022-08-09T12:54:47.724Z,49.80
2022-08-09T12:57:46.943Z,50.60
2022-08-09T13:00:35.429Z,50.70
2022-08-09T13:03:04.987Z,51.30
2022-08-09T13:05:52.364Z,50.80
2022-08-09T13:08:40.844Z,49.90
2022-08-09T13:11:22.660Z,51.60
2022-08-09T13:14:37.153Z,50.80
2022-08-09T13:16:46.145Z,52.00
2022-08-09T13:20:07.776Z,51.40
2022-08-09T13:22:38.385Z,52.90
2022-08-09T13:25:13.785Z,53.60
2022-08-09T13:27:48.636Z,53.50
2022-08-09T13:30:51.099Z,53.20
2022-08-09T13:33:12.008Z,52.40
2022-08-09T13:36:24.233Z,50.80
2022-08-09T13:38:57.256Z,50.20
2022-08-09T13:41:57.941Z,51.60
2022-08-09T13:44:13.732Z,51.80
2022-08-09T13:47:29.092Z,51.10
2022-08-09T13:49:38.163Z,50.60
2022-08-09T13:52:18.566Z,51.10
2022-08-09T13:55:00.629Z,51.20
2022-08-09T13:57:39.821Z,51.20
2022-08-09T14:00:12.227Z,50.80
2022-08-09T14:02:42.869Z,50.30
2022-08-09T14:05:59.972Z,50.50
2022-08-09T14:08:15.863Z,50.20
2022-08-09T14:10:49.096Z,50.50
2022-08-09T14:13:27.626Z,50.50
2022-08-09T14:16:10.990Z,50.50
2022-08-09T14:18:45.390Z,50.30
2022-08-09T14:21:17.802Z,50.30
2022-08-09T14:23:53.729Z,50.40
2022-08-09T14:26:21.570Z,50.30
2022-08-09T14:28:48.487Z,50.50
2022-08-09T14:31:15.433Z,49.90
2022-08-09T14:33:42.281Z,50.00
2022-08-09T14:36:19.536Z,50.00
2022-08-09T14:38:46.842Z,49.80
2022-08-09T14:41:40.459Z,49.40
2022-08-09T14:44:09.578Z,49.10
2022-08-09T14:47:04.691Z,49.70
2022-08-09T14:49:27.520Z,49.60
2022-08-09T14:51:59.018Z,50.00
2022-08-09T14:54:27.591Z,49.50
2022-08-09T14:56:58.621Z,49.10
2022-08-09T14:59:28.622Z,48.30
2022-08-09T15:01:56.266Z,48.20
2022-08-09T15:04:24.629Z,48.80
2022-08-09T15:06:51.969Z,48.60
2022-08-09T15:10:03.082Z,48.70
2022-08-09T15:12:08.178Z,48.60
2022-08-09T15:14:38.527Z,49.20
2022-08-09T15:17:09.713Z,48.40
2022-08-09T15:19:37.139Z,48.40
2022-08-09T15:22:26.872Z,49.80
2022-08-09T15:24:54.372Z,50.70
2022-08-09T15:27:21.500Z,50.10
2022-08-09T15:30:48.655Z,50.70
2022-08-09T15:32:35.747Z,49.90
2022-08-09T15:35:18.317Z,49.90
2022-08-09T15:37:56.254Z,50.10
2022-08-09T15:40:37.342Z,50.10
2022-08-09T15:43:13.504Z,50.00
2022-08-09T15:45:51.765Z,49.90
2022-08-09T15:48:30.607Z,49.90
2022-08-09T15:51:01.116Z,50.20
2022-08-09T15:54:03.559Z,50.30
2022-08-09T15:56:29.055Z,50.50
2022-08-09T15:58:58.342Z,50.50
2022-08-09T16:01:25.578Z,50.60
2022-08-09T16:03:52.480Z,50.80
2022-08-09T16:06:32.774Z,50.60
2022-08-09T16:09:04.795Z,50.50
2022-08-09T16:11:33.171Z,50.70
2022-08-09T16:14:04.879Z,50.90
2022-08-09T16:16:36.881Z,51.40
2022-08-09T16:19:05.944Z,52.10
2022-08-09T16:21:35.388Z,51.10
2022-08-09T16:24:13.076Z,50.70
2022-08-09T16:26:55.138Z,50.80
2022-08-09T16:29:37.605Z,51.10
2022-08-09T16:32:19.980Z,50.70
2022-08-09T16:34:55.990Z,50.60
2022-08-09T16:37:53.309Z,50.80
2022-08-09T16:40:13.107Z,50.90
2022-08-09T16:42:45.547Z,51.60
2022-08-09T16:45:17.288Z,51.20
2022-08-09T16:48:41.704Z,50.90
2022-08-09T16:50:34.329Z,51.00
2022-08-09T16:53:03.250Z,51.00
2022-08-09T16:55:57.904Z,51.20
2022-08-09T16:58:21.063Z,51.10
2022-08-09T17:00:50.193Z,51.00
2022-08-09T17:03:21.493Z,50.90
2022-08-09T17:06:08.404Z,50.80
2022-08-09T17:09:01.732Z,50.90
2022-08-09T17:11:37.629Z,50.80
2022-08-09T17:14:25.857Z,51.40
2022-08-09T17:17:01.478Z,51.40
2022-08-09T17:19:47.572Z,50.80
2022-08-09T17:22:25.053Z,50.60
2022-08-09T17:25:03.479Z,50.70
2022-08-09T17:27:33.607Z,50.00
2022-08-09T17:30:07.003Z,50.30
2022-08-09T17:32:44.292Z,50.60
2022-08-09T17:35:16.080Z,50.60
2022-08-09T17:38:12.578Z,50.60
2022-08-09T17:40:33.405Z,50.60
2022-08-09T17:43:32.255Z,50.40
2022-08-09T17:46:03.170Z,50.30
2022-08-09T17:48:52.058Z,50.00
2022-08-09T17:51:20.043Z,50.30
2022-08-09T17:53:52.802Z,50.00
2022-08-09T17:56:28.460Z,50.10
2022-08-09T17:59:11.905Z,50.60
2022-08-09T18:02:06.374Z,49.80
2022-08-09T18:04:29.726Z,50.00
2022-08-09T18:06:57.289Z,50.10
2022-08-09T18:09:41.041Z,50.30
2022-08-09T18:12:19.847Z,50.40
2022-08-09T18:14:53.731Z,50.50
2022-08-09T18:17:27.517Z,50.70
2022-08-09T18:20:57.988Z,50.70
2022-08-09T18:23:05.115Z,50.70
2022-08-09T18:25:52.731Z,50.80
2022-08-09T18:30:34.455Z,50.80
2022-08-09T18:31:08.130Z,50.80
2022-08-09T18:33:35.022Z,51.00
2022-08-09T18:36:02.970Z,51.10
2022-08-09T18:38:30.700Z,51.30
2022-08-09T18:41:00.928Z,52.60
2022-08-09T18:43:28.509Z,52.50
2022-08-09T18:46:47.705Z,52.80
2022-08-09T18:48:51.037Z,53.30
2022-08-09T18:51:17.927Z,53.80
2022-08-09T18:54:00.769Z,53.80
2022-08-09T18:56:31.536Z,54.10
2022-08-09T18:59:01.145Z,54.10
2022-08-09T19:01:28.339Z,54.00
2022-08-09T19:04:10.785Z,54.00
2022-08-09T19:06:38.388Z,54.00
2022-08-09T19:09:07.380Z,54.40
2022-08-09T19:11:38.102Z,54.60
2022-08-09T19:14:06.514Z,54.80
2022-08-09T19:16:36.343Z,55.10
2022-08-09T19:19:26.044Z,54.80
2022-08-09T19:22:06.604Z,55.50
2022-08-09T19:24:38.689Z,55.20
2022-08-09T19:27:22.182Z,55.40
2022-08-09T19:30:20.939Z,55.10
2022-08-09T19:32:37.181Z,55.30
2022-08-09T19:35:04.800Z,55.50
2022-08-09T19:37:40.948Z,55.70
2022-08-09T19:40:19.716Z,55.70
2022-08-09T19:42:47.409Z,55.50
2022-08-09T19:45:15.920Z,55.90
2022-08-09T19:47:44.347Z,55.70
2022-08-09T19:50:49.111Z,55.70
2022-08-09T19:53:05.047Z,56.10
2022-08-09T19:56:01.850Z,55.90
2022-08-09T19:58:30.000Z,56.00
2022-08-09T20:00:58.036Z,56.20
2022-08-09T20:04:11.126Z,56.20
2022-08-09T20:06:23.786Z,56.50
2022-08-09T20:08:56.818Z,56.70
2022-08-09T20:11:26.233Z,56.70
2022-08-09T20:13:54.726Z,56.80
2022-08-09T20:16:36.974Z,56.90
2022-08-09T20:19:47.880Z,57.10
2022-08-09T20:22:00.174Z,57.30
2022-08-09T20:24:29.899Z,57.20
2022-08-09T20:27:03.021Z,57.60
2022-08-09T20:29:37.245Z,57.80
2022-08-09T20:32:29.830Z,57.70
2022-08-09T20:34:57.653Z,57.50
2022-08-09T20:37:25.142Z,57.60
2022-08-09T20:40:14.974Z,57.90
2022-08-09T20:42:38.758Z,58.20
2022-08-09T20:45:59.543Z,58.30
2022-08-09T20:47:55.083Z,58.60
2022-08-09T20:50:47.602Z,58.50
2022-08-09T20:53:18.816Z,58.80
2022-08-09T20:56:00.678Z,58.90
2022-08-09T20:58:28.606Z,59.20
2022-08-09T21:01:13.590Z,59.10
2022-08-09T21:05:49.486Z,59.40
2022-08-09T21:06:35.807Z,59.40
2022-08-09T21:09:11.857Z,60.00
2022-08-09T21:14:31.173Z,59.90
2022-08-09T21:17:00.552Z,59.80
2022-08-09T21:20:19.303Z,60.00
2022-08-09T21:22:35.924Z,60.20
2022-08-09T21:25:21.187Z,60.10
2022-08-09T21:27:50.883Z,60.00
2022-08-09T21:30:18.943Z,57.80
2022-08-09T21:32:45.753Z,54.10
2022-08-09T21:35:13.127Z,54.00
2022-08-09T21:37:47.354Z,52.20
2022-08-09T21:40:30.682Z,51.40
2022-08-09T21:42:59.306Z,51.00
2022-08-09T21:45:26.644Z,52.10
2022-08-09T21:47:53.936Z,51.40
2022-08-09T21:50:35.108Z,50.20
2022-08-09T21:53:06.995Z,49.70
2022-08-09T21:55:50.737Z,49.30
2022-08-09T21:58:17.890Z,48.70
2022-08-09T22:00:44.761Z,48.30
2022-08-09T22:03:19.631Z,47.40
2022-08-09T22:05:53.242Z,47.10
2022-08-09T22:08:24.783Z,46.80
2022-08-09T22:11:49.108Z,45.50
2022-08-09T22:13:42.254Z,45.90
2022-08-09T22:16:11.507Z,45.50
2022-08-09T22:18:52.181Z,45.50
2022-08-09T22:21:45.272Z,45.40
2022-08-09T22:24:20.990Z,45.30
2022-08-09T22:26:52.212Z,45.10
2022-08-09T22:29:24.059Z,45.10
2022-08-09T22:31:57.026Z,44.50
2022-08-09T22:34:28.512Z,44.60
2022-08-09T22:36:57.351Z,44.30
2022-08-09T22:39:57.753Z,44.30
2022-08-09T22:42:22.312Z,44.30
2022-08-09T22:45:00.064Z,44.10
2022-08-09T22:48:33.884Z,44.00
2022-08-09T22:50:26.338Z,44.10
2022-08-09T22:52:57.905Z,44.10
2022-08-09T22:55:33.632Z,44.20
2022-08-09T22:58:07.540Z,44.20
2022-08-09T23:00:36.096Z,43.90
2022-08-09T23:03:04.552Z,44.30
2022-08-09T23:05:39.797Z,43.90
2022-08-09T23:08:31.448Z,43.90
2022-08-09T23:10:58.577Z,43.50
2022-08-09T23:13:25.402Z,43.70
2022-08-09T23:16:03.096Z,43.50
2022-08-09T23:18:31.144Z,43.60
2022-08-09T23:20:57.898Z,43.80
2022-08-09T23:23:25.274Z,43.40
2022-08-09T23:25:52.257Z,43.40
2022-08-09T23:28:19.229Z,43.50
2022-08-09T23:30:51.391Z,43.30
2022-08-09T23:33:20.303Z,43.10
2022-08-09T23:36:05.592Z,43.20
2022-08-09T23:38:36.081Z,43.20
2022-08-09T23:41:28.583Z,43.10
2022-08-09T23:43:59.721Z,43.20
2022-08-09T23:46:27.965Z,43.30
2022-08-09T23:48:54.802Z,43.30
2022-08-09T23:51:21.741Z,43.30
2022-08-09T23:53:50.508Z,43.20
2022-08-09T23:56:52.508Z,43.40
2022-08-09T23:59:06.358Z,43.30
